Time;durP1;ratioP1;P1;durP2;ratioP2;P2;SDS_P1;SDS_P2;PMS_P1;PMS_P2;Temp;Humidity;BMP_temperature;BMP_pressure;BME280_temperature;BME280_humidity;BME280_pressure;Samples;Min_cycle;Max_cycle;Signal;HPM_P1;HPM_P2
2023/09/11 00:00:34;;;;;;;8.40;6.07;;;16.10;99.90;;;;;;496558;239;28831;-74
2023/09/11 00:02:47;;;;;;;9.60;6.57;;;16.00;99.90;;;;;;496596;239;29387;-76
2023/09/11 00:04:49;;;;;;;10.67;6.50;;;16.00;99.90;;;;;;496603;239;28898;-76
2023/09/11 00:06:53;;;;;;;13.33;6.40;;;16.00;99.90;;;;;;496554;239;29364;-74
2023/09/11 00:08:54;;;;;;;13.10;6.33;;;15.90;99.90;;;;;;496580;239;29389;-75
2023/09/11 00:11:02;;;;;;;15.90;7.10;;;16.00;99.90;;;;;;496608;239;29327;-73
2023/09/11 00:13:03;;;;;;;12.90;6.37;;;16.00;99.90;;;;;;496594;239;28813;-76
2023/09/11 00:15:07;;;;;;;11.13;6.57;;;16.00;99.90;;;;;;496560;239;29271;-73
2023/09/11 00:17:08;;;;;;;15.97;6.60;;;16.00;99.90;;;;;;496590;239;28817;-73
2023/09/11 00:19:19;;;;;;;14.73;6.90;;;16.00;99.90;;;;;;496584;239;29347;-73
2023/09/11 00:21:20;;;;;;;11.43;6.13;;;15.90;99.90;;;;;;496586;239;28851;-74
2023/09/11 00:23:21;;;;;;;12.10;6.03;;;15.90;99.90;;;;;;496558;239;29283;-73
2023/09/11 00:25:23;;;;;;;8.20;6.27;;;15.80;99.90;;;;;;496568;239;28800;-76
2023/09/11 00:27:24;;;;;;;14.33;6.67;;;15.80;99.90;;;;;;496566;239;29043;-73
2023/09/11 00:29:25;;;;;;;9.53;6.10;;;15.80;99.90;;;;;;496577;239;28821;-73
2023/09/11 00:31:26;;;;;;;10.90;6.47;;;15.80;99.90;;;;;;496556;239;28881;-74
2023/09/11 00:35:32;;;;;;;13.97;6.47;;;15.80;99.90;;;;;;496581;239;29303;-75
2023/09/11 00:37:39;;;;;;;10.53;6.37;;;15.80;99.90;;;;;;496566;239;29343;-76
2023/09/11 00:39:40;;;;;;;11.07;6.40;;;15.80;99.90;;;;;;496521;239;28964;-75
2023/09/11 00:41:44;;;;;;;10.70;6.20;;;15.70;99.90;;;;;;496568;239;30061;-75
2023/09/11 00:43:45;;;;;;;13.03;6.60;;;15.70;99.90;;;;;;496598;239;28818;-75
2023/09/11 00:45:48;;;;;;;7.10;6.00;;;15.70;99.90;;;;;;496590;239;28844;-75
2023/09/11 00:47:47;;;;;;;9.07;6.03;;;15.70;99.90;;;;;;496478;239;28842;-75
2023/09/11 00:49:50;;;;;;;10.90;7.27;;;15.70;99.90;;;;;;496538;239;28845;-76
2023/09/11 00:51:51;;;;;;;14.87;6.40;;;15.70;99.90;;;;;;496559;239;28809;-75
2023/09/11 00:53:58;;;;;;;12.10;5.90;;;15.70;99.90;;;;;;496541;239;29402;-78
2023/09/11 00:56:02;;;;;;;14.10;7.00;;;15.60;99.90;;;;;;496569;239;28960;-75
2023/09/11 00:58:03;;;;;;;11.30;6.80;;;15.60;99.90;;;;;;496570;239;28924;-75
2023/09/11 01:00:06;;;;;;;8.93;6.30;;;15.60;99.90;;;;;;496606;239;29377;-74
2023/09/11 01:02:07;;;;;;;12.37;6.23;;;15.50;99.90;;;;;;496595;239;28846;-76
2023/09/11 01:04:09;;;;;;;14.97;6.73;;;15.50;99.90;;;;;;496585;239;28861;-75
2023/09/11 01:06:10;;;;;;;10.17;6.77;;;15.60;99.90;;;;;;496556;239;28810;-75
2023/09/11 01:08:17;;;;;;;14.50;6.50;;;15.60;99.90;;;;;;496555;239;29363;-75
2023/09/11 01:10:18;;;;;;;8.30;6.27;;;15.60;99.90;;;;;;496552;239;28857;-76
2023/09/11 01:12:22;;;;;;;10.00;6.30;;;15.60;99.90;;;;;;496537;239;28786;-73
2023/09/11 01:14:23;;;;;;;12.87;6.77;;;15.60;99.90;;;;;;496564;239;28865;-74
2023/09/11 01:16:24;;;;;;;14.73;6.67;;;15.50;99.90;;;;;;496579;239;29352;-74
2023/09/11 01:18:26;;;;;;;11.47;6.93;;;15.50;99.90;;;;;;496569;239;29336;-73
2023/09/11 01:20:27;;;;;;;10.80;6.63;;;15.50;99.90;;;;;;496578;239;29742;-73
2023/09/11 01:22:29;;;;;;;12.90;7.10;;;15.50;99.90;;;;;;496559;239;29233;-74
2023/09/11 01:24:29;;;;;;;8.73;6.60;;;15.50;99.90;;;;;;496575;239;28916;-74
2023/09/11 01:26:37;;;;;;;14.00;7.47;;;15.50;99.90;;;;;;496565;239;29265;-73
2023/09/11 01:28:38;;;;;;;11.07;6.57;;;15.50;99.90;;;;;;496587;239;28808;-75
2023/09/11 01:30:40;;;;;;;13.20;6.87;;;15.40;99.90;;;;;;496529;239;30185;-76
2023/09/11 01:32:42;;;;;;;12.27;7.10;;;15.40;99.90;;;;;;496580;239;28818;-76
2023/09/11 01:34:55;;;;;;;12.87;6.10;;;15.40;99.90;;;;;;496596;239;29329;-74
2023/09/11 01:36:56;;;;;;;15.03;6.63;;;15.40;99.90;;;;;;496558;239;28804;-75
2023/09/11 01:39:04;;;;;;;14.73;6.80;;;15.40;99.90;;;;;;496584;239;29402;-75
2023/09/11 01:41:05;;;;;;;16.63;6.70;;;15.40;99.90;;;;;;496609;239;28925;-75
2023/09/11 01:45:26;;;;;;;13.60;7.07;;;15.40;99.90;;;;;;496597;239;28878;-74
2023/09/11 01:47:28;;;;;;;10.13;6.70;;;15.40;99.90;;;;;;496590;239;28848;-72
2023/09/11 01:49:41;;;;;;;8.00;6.30;;;15.30;99.90;;;;;;496639;239;28923;-76
2023/09/11 01:51:42;;;;;;;9.93;6.90;;;15.30;99.90;;;;;;496615;239;28841;-75
2023/09/11 01:53:43;;;;;;;12.17;6.57;;;15.30;99.90;;;;;;496584;239;28860;-76
2023/09/11 01:55:48;;;;;;;13.77;7.30;;;15.30;99.90;;;;;;496583;239;30015;-75
2023/09/11 01:58:01;;;;;;;12.57;7.33;;;15.30;99.90;;;;;;496623;239;28927;-71
2023/09/11 02:00:04;;;;;;;9.23;6.60;;;15.30;99.90;;;;;;496604;239;28892;-75
2023/09/11 02:02:11;;;;;;;14.07;6.83;;;15.30;99.90;;;;;;496597;239;28851;-73
2023/09/11 02:04:12;;;;;;;9.63;6.40;;;15.20;99.90;;;;;;496648;239;28825;-73
2023/09/11 02:06:19;;;;;;;14.80;6.97;;;15.20;99.90;;;;;;496659;239;28868;-73
2023/09/11 02:08:21;;;;;;;10.70;6.33;;;15.10;99.90;;;;;;496603;239;28824;-77
2023/09/11 02:10:23;;;;;;;10.30;7.00;;;15.10;99.90;;;;;;496601;239;28872;-75
2023/09/11 02:12:24;;;;;;;15.33;8.10;;;15.10;99.90;;;;;;496646;239;28810;-76
2023/09/11 02:16:30;;;;;;;11.37;6.97;;;15.10;99.90;;;;;;496631;239;28876;-74
2023/09/11 02:18:31;;;;;;;12.77;6.50;;;15.10;99.90;;;;;;496624;239;29245;-74
2023/09/11 02:20:32;;;;;;;12.37;7.67;;;15.10;99.90;;;;;;496648;239;29270;-75
2023/09/11 02:24:44;;;;;;;11.73;6.90;;;15.10;99.90;;;;;;496606;239;28845;-72
2023/09/11 02:29:17;;;;;;;10.17;7.20;;;15.10;99.90;;;;;;496626;239;29282;-73
2023/09/11 02:31:18;;;;;;;10.80;7.10;;;15.00;99.90;;;;;;496560;239;28877;-73
2023/09/11 02:33:20;;;;;;;19.13;8.67;;;15.10;99.90;;;;;;496603;239;28923;-76
2023/09/11 02:35:21;;;;;;;11.20;6.80;;;15.00;99.90;;;;;;496600;239;28879;-73
2023/09/11 02:37:28;;;;;;;11.70;7.23;;;15.00;99.90;;;;;;496566;239;29322;-72
2023/09/11 02:39:29;;;;;;;11.77;7.53;;;15.00;99.90;;;;;;496583;239;28817;-73
2023/09/11 02:41:37;;;;;;;15.13;7.20;;;15.00;99.90;;;;;;496582;239;29348;-74
2023/09/11 02:43:39;;;;;;;11.83;6.90;;;15.00;99.90;;;;;;496605;239;28814;-76
2023/09/11 02:45:40;;;;;;;11.13;6.53;;;15.00;99.90;;;;;;496574;239;29367;-72
2023/09/11 02:47:41;;;;;;;12.10;7.10;;;15.00;99.90;;;;;;496562;239;29278;-73
2023/09/11 02:49:48;;;;;;;12.70;7.10;;;15.00;99.90;;;;;;496566;239;29415;-73
2023/09/11 02:51:50;;;;;;;17.40;7.40;;;15.00;99.90;;;;;;496613;239;28920;-77
2023/09/11 02:53:57;;;;;;;11.13;7.03;;;15.00;99.90;;;;;;496620;239;29320;-72
2023/09/11 02:55:58;;;;;;;15.03;6.50;;;15.00;99.90;;;;;;496621;239;28935;-74
2023/09/11 03:00:05;;;;;;;10.40;6.83;;;15.00;99.90;;;;;;496600;239;28951;-76
2023/09/11 03:02:14;;;;;;;11.17;7.10;;;15.00;99.90;;;;;;496594;239;29332;-76
2023/09/11 03:04:15;;;;;;;11.03;6.70;;;14.90;99.90;;;;;;496600;239;28821;-73
2023/09/11 03:06:22;;;;;;;11.30;7.70;;;14.90;99.90;;;;;;496574;239;29399;-75
2023/09/11 03:08:23;;;;;;;10.50;7.57;;;14.90;99.90;;;;;;496583;239;28830;-76
2023/09/11 03:10:36;;;;;;;8.90;6.50;;;14.90;99.90;;;;;;496578;239;29390;-73
2023/09/11 03:12:37;;;;;;;10.40;6.67;;;14.80;99.90;;;;;;496564;239;28874;-74
2023/09/11 03:14:40;;;;;;;14.87;7.43;;;14.80;99.90;;;;;;496578;239;29326;-73
2023/09/11 03:16:43;;;;;;;13.30;7.10;;;14.70;99.90;;;;;;496601;239;28896;-75
2023/09/11 03:18:57;;;;;;;9.83;6.57;;;14.70;99.90;;;;;;496587;239;29453;-73
2023/09/11 03:20:59;;;;;;;10.30;7.00;;;14.80;99.90;;;;;;496558;239;28851;-71
2023/09/11 03:23:03;;;;;;;15.23;7.50;;;14.70;99.90;;;;;;496575;239;29325;-73
2023/09/11 03:25:04;;;;;;;10.60;6.80;;;14.80;99.90;;;;;;496600;239;28852;-76
2023/09/11 03:27:11;;;;;;;14.53;7.77;;;14.80;99.90;;;;;;496585;239;29273;-73
2023/09/11 03:29:13;;;;;;;12.03;7.57;;;14.80;99.90;;;;;;496584;239;28948;-74
2023/09/11 03:31:15;;;;;;;8.80;6.33;;;14.80;99.90;;;;;;496565;239;29280;-72
2023/09/11 03:33:15;;;;;;;11.17;7.40;;;14.60;99.90;;;;;;496536;239;29282;-73
2023/09/11 03:35:16;;;;;;;10.40;7.00;;;14.70;99.90;;;;;;496583;239;29333;-73
2023/09/11 03:37:18;;;;;;;9.03;6.27;;;14.70;99.90;;;;;;496599;239;28852;-74
2023/09/11 03:39:19;;;;;;;13.20;7.33;;;14.70;99.90;;;;;;496584;239;28824;-72
2023/09/11 03:41:21;;;;;;;11.03;6.67;;;14.70;99.90;;;;;;496572;239;28868;-79
2023/09/11 03:43:31;;;;;;;12.07;6.97;;;14.70;99.90;;;;;;496592;239;29225;-75
2023/09/11 03:45:32;;;;;;;9.97;6.60;;;14.70;99.90;;;;;;496591;239;28808;-74
2023/09/11 03:47:33;;;;;;;17.30;7.13;;;14.70;99.90;;;;;;496527;239;28834;-78
2023/09/11 03:49:34;;;;;;;9.77;6.50;;;14.70;99.90;;;;;;496571;239;29400;-76
2023/09/11 03:51:39;;;;;;;11.17;7.30;;;14.70;99.90;;;;;;496545;239;29308;-75
2023/09/11 03:53:42;;;;;;;15.77;7.77;;;14.70;99.90;;;;;;496566;239;28800;-74
2023/09/11 03:55:41;;;;;;;11.17;7.10;;;14.70;99.90;;;;;;496522;239;29328;-75
2023/09/11 03:57:42;;;;;;;13.50;7.30;;;14.70;99.90;;;;;;496553;239;29326;-75
2023/09/11 04:01:48;;;;;;;9.60;6.70;;;14.60;99.90;;;;;;496589;239;28961;-75
2023/09/11 04:03:55;;;;;;;12.40;6.83;;;14.60;99.90;;;;;;496545;239;28865;-74
2023/09/11 04:05:57;;;;;;;10.80;7.47;;;14.60;99.90;;;;;;496595;239;28931;-79
2023/09/11 04:07:58;;;;;;;13.60;7.17;;;14.60;99.90;;;;;;496558;239;28899;-76
2023/09/11 04:09:59;;;;;;;15.90;8.70;;;14.50;99.90;;;;;;496529;239;29342;-74
2023/09/11 04:12:03;;;;;;;11.77;7.60;;;14.50;99.90;;;;;;496538;239;29236;-75
2023/09/11 04:14:05;;;;;;;16.60;7.30;;;14.40;99.90;;;;;;496579;239;28936;-75
2023/09/11 04:16:09;;;;;;;9.90;7.50;;;14.50;99.90;;;;;;496562;239;29458;-73
2023/09/11 04:18:10;;;;;;;17.30;7.67;;;14.50;99.90;;;;;;496577;239;28911;-74
2023/09/11 04:20:17;;;;;;;11.60;7.40;;;14.50;99.90;;;;;;496529;239;29354;-76
2023/09/11 04:22:19;;;;;;;11.90;7.27;;;14.60;99.90;;;;;;496522;239;28860;-75
2023/09/11 04:24:23;;;;;;;12.33;6.90;;;14.60;99.90;;;;;;496577;239;29043;-75
2023/09/11 04:26:24;;;;;;;8.97;6.90;;;14.50;99.90;;;;;;496581;239;28804;-74
2023/09/11 04:28:29;;;;;;;12.63;7.47;;;14.50;99.90;;;;;;496526;239;28946;-75
2023/09/11 04:30:30;;;;;;;10.40;6.40;;;14.60;99.90;;;;;;496568;239;28942;-75
2023/09/11 04:32:37;;;;;;;9.70;7.70;;;14.60;99.90;;;;;;496583;239;29309;-75
2023/09/11 04:34:38;;;;;;;9.33;6.30;;;14.50;99.90;;;;;;496568;239;28878;-75
2023/09/11 04:36:45;;;;;;;8.70;7.10;;;14.50;99.90;;;;;;496568;239;28841;-74
2023/09/11 04:38:46;;;;;;;11.00;7.13;;;14.50;99.90;;;;;;496563;239;28855;-75
2023/09/11 04:40:48;;;;;;;8.20;6.43;;;14.50;99.90;;;;;;496539;239;28869;-75
2023/09/11 04:42:55;;;;;;;12.10;7.37;;;14.50;99.90;;;;;;496570;239;29299;-75
2023/09/11 04:44:59;;;;;;;10.30;6.90;;;14.50;99.90;;;;;;496598;239;28828;-73
2023/09/11 04:47:10;;;;;;;9.93;6.73;;;14.50;99.90;;;;;;496581;239;29395;-75
2023/09/11 04:49:11;;;;;;;8.67;6.73;;;14.50;99.90;;;;;;496624;239;28865;-75
2023/09/11 04:51:13;;;;;;;10.73;7.23;;;14.40;99.90;;;;;;496563;239;28838;-74
2023/09/11 04:53:14;;;;;;;13.13;6.57;;;14.40;99.90;;;;;;496578;239;28800;-73
2023/09/11 04:55:19;;;;;;;11.20;7.53;;;14.40;99.90;;;;;;496566;239;29335;-75
2023/09/11 04:57:20;;;;;;;8.83;7.37;;;14.50;99.90;;;;;;496562;239;28835;-74
2023/09/11 04:59:25;;;;;;;7.97;6.67;;;14.40;99.90;;;;;;496597;239;28547;-75
2023/09/11 05:01:27;;;;;;;13.43;7.13;;;14.40;99.90;;;;;;496549;239;28503;-73
2023/09/11 05:03:28;;;;;;;7.90;6.37;;;14.40;99.90;;;;;;496578;239;28801;-74
2023/09/11 05:05:30;;;;;;;10.73;7.30;;;14.40;99.90;;;;;;496565;239;28840;-74
2023/09/11 05:07:30;;;;;;;11.00;7.07;;;14.40;99.90;;;;;;496584;239;29270;-74
2023/09/11 05:11:36;;;;;;;7.97;6.90;;;14.40;99.90;;;;;;496585;239;28954;-74
2023/09/11 05:13:37;;;;;;;9.20;6.60;;;14.40;99.90;;;;;;496532;239;29070;-72
2023/09/11 05:15:39;;;;;;;13.67;6.87;;;14.40;99.90;;;;;;496611;239;29298;-76
2023/09/11 05:17:40;;;;;;;13.53;7.37;;;14.40;99.90;;;;;;496612;239;29410;-76
2023/09/11 05:19:41;;;;;;;9.33;6.87;;;14.40;99.90;;;;;;496579;239;28809;-74
2023/09/11 05:21:42;;;;;;;10.23;6.83;;;14.40;99.90;;;;;;496587;239;28618;-74
2023/09/11 05:23:49;;;;;;;9.50;6.70;;;14.50;99.90;;;;;;496610;239;28896;-73
2023/09/11 05:25:51;;;;;;;10.27;7.03;;;14.50;99.90;;;;;;496627;239;28939;-73
2023/09/11 05:27:58;;;;;;;12.90;7.23;;;14.50;99.90;;;;;;496597;239;29110;-74
2023/09/11 05:29:59;;;;;;;10.60;6.40;;;14.50;99.90;;;;;;496573;239;28962;-73
2023/09/11 05:32:04;;;;;;;9.27;6.63;;;14.60;99.90;;;;;;496568;239;29001;-72
2023/09/11 05:34:05;;;;;;;9.40;7.07;;;14.50;99.90;;;;;;496590;239;28819;-73
2023/09/11 05:36:16;;;;;;;10.37;7.20;;;14.60;99.90;;;;;;496565;239;28835;-74
2023/09/11 05:38:17;;;;;;;9.90;6.73;;;14.60;99.90;;;;;;496558;239;28926;-73
2023/09/11 05:40:24;;;;;;;9.77;6.60;;;14.60;99.90;;;;;;496584;239;29327;-73
2023/09/11 05:42:25;;;;;;;11.43;7.50;;;14.70;99.90;;;;;;496593;239;28820;-73
2023/09/11 05:44:28;;;;;;;13.07;6.57;;;14.70;99.90;;;;;;496572;239;28850;-73
2023/09/11 05:46:29;;;;;;;10.00;6.90;;;14.70;99.90;;;;;;496611;239;28868;-72
2023/09/11 05:48:33;;;;;;;7.60;6.23;;;14.70;99.90;;;;;;496607;239;29363;-73
2023/09/11 05:50:35;;;;;;;7.40;6.40;;;14.80;99.90;;;;;;496590;239;28853;-74
2023/09/11 05:52:36;;;;;;;11.40;6.33;;;14.80;99.90;;;;;;496567;239;28798;-72
2023/09/11 05:54:37;;;;;;;11.10;7.73;;;14.80;99.90;;;;;;496605;239;29327;-73
2023/09/11 05:56:44;;;;;;;13.53;7.27;;;14.90;99.90;;;;;;496586;239;29460;-74
2023/09/11 05:58:45;;;;;;;7.90;6.50;;;14.90;99.90;;;;;;496587;239;28799;-76
2023/09/11 06:00:47;;;;;;;13.60;7.53;;;15.00;99.90;;;;;;496584;239;28933;-76
2023/09/11 06:02:48;;;;;;;8.50;7.30;;;15.00;99.90;;;;;;496534;239;29221;-75
2023/09/11 06:04:52;;;;;;;10.53;6.23;;;15.10;99.90;;;;;;496589;239;29369;-73
2023/09/11 06:06:54;;;;;;;11.13;7.00;;;15.10;99.90;;;;;;496582;239;28876;-75
2023/09/11 06:09:03;;;;;;;9.10;6.70;;;15.20;99.90;;;;;;496572;239;29309;-75
2023/09/11 06:11:02;;;;;;;11.77;7.80;;;15.20;99.90;;;;;;496570;239;28866;-75
2023/09/11 06:13:03;;;;;;;9.30;6.63;;;15.20;99.90;;;;;;496594;239;29265;-74
2023/09/11 06:15:10;;;;;;;9.63;6.40;;;15.30;99.90;;;;;;496597;239;29279;-76
2023/09/11 06:17:12;;;;;;;9.40;6.80;;;15.30;99.90;;;;;;496565;239;28815;-75
2023/09/11 06:19:19;;;;;;;9.70;6.73;;;15.40;99.90;;;;;;496565;239;28844;-76
2023/09/11 06:21:20;;;;;;;11.53;6.20;;;15.40;99.90;;;;;;496583;239;28913;-78
2023/09/11 06:23:28;;;;;;;11.17;6.60;;;15.50;99.90;;;;;;496617;239;29299;-75
2023/09/11 06:25:29;;;;;;;7.80;6.30;;;15.60;99.90;;;;;;496580;239;28867;-76
2023/09/11 06:27:34;;;;;;;10.20;6.50;;;15.60;99.90;;;;;;496549;239;29332;-75
2023/09/11 06:29:34;;;;;;;9.63;6.90;;;15.70;99.90;;;;;;496567;239;29256;-75
2023/09/11 06:31:36;;;;;;;7.50;6.50;;;15.70;99.90;;;;;;496536;239;29372;-76
2023/09/11 06:33:37;;;;;;;12.30;6.20;;;15.90;99.90;;;;;;496594;239;28938;-73
2023/09/11 06:35:38;;;;;;;8.10;6.07;;;15.90;99.90;;;;;;496586;239;28891;-75
2023/09/11 06:37:40;;;;;;;8.90;5.73;;;16.00;99.90;;;;;;496574;239;28869;-73
2023/09/11 06:39:41;;;;;;;12.60;6.67;;;16.00;99.90;;;;;;496607;239;28888;-79
2023/09/11 06:41:48;;;;;;;11.03;6.87;;;16.10;99.90;;;;;;496612;239;29254;-75
2023/09/11 06:43:49;;;;;;;8.67;6.30;;;16.20;99.90;;;;;;496603;239;28923;-75
2023/09/11 06:45:56;;;;;;;8.07;6.60;;;16.20;99.90;;;;;;496585;239;29391;-73
2023/09/11 06:47:58;;;;;;;10.80;6.97;;;16.30;99.90;;;;;;496588;239;28925;-74
2023/09/11 06:50:04;;;;;;;6.87;6.10;;;16.30;99.90;;;;;;496557;239;29824;-75
2023/09/11 06:52:06;;;;;;;7.07;6.37;;;16.40;99.90;;;;;;496574;239;28838;-74
2023/09/11 06:54:12;;;;;;;17.20;6.53;;;16.50;99.90;;;;;;496603;239;29434;-72
2023/09/11 06:56:12;;;;;;;11.43;6.43;;;16.60;99.90;;;;;;496536;239;28837;-76
2023/09/11 06:58:14;;;;;;;10.20;6.47;;;16.70;99.90;;;;;;496516;239;29766;-75
2023/09/11 07:00:15;;;;;;;8.00;5.87;;;16.70;99.90;;;;;;496564;239;28831;-75
2023/09/11 07:02:16;;;;;;;7.27;6.00;;;16.80;99.90;;;;;;496599;239;29342;-74
2023/09/11 07:04:17;;;;;;;9.43;6.03;;;16.80;99.90;;;;;;496601;239;29329;-76
2023/09/11 07:06:31;;;;;;;7.90;5.57;;;16.90;99.90;;;;;;496583;239;29271;-75
2023/09/11 07:08:32;;;;;;;8.27;5.70;;;17.00;99.90;;;;;;496604;239;28925;-76
2023/09/11 07:10:42;;;;;;;7.90;6.30;;;17.00;99.90;;;;;;496590;239;29391;-75
2023/09/11 07:12:43;;;;;;;7.93;6.10;;;17.10;99.90;;;;;;496581;239;28845;-75
2023/09/11 07:14:45;;;;;;;6.40;5.80;;;17.10;99.90;;;;;;496573;239;28798;-75
2023/09/11 07:16:47;;;;;;;6.60;5.43;;;17.20;99.90;;;;;;496555;239;29337;-74
2023/09/11 07:18:48;;;;;;;11.67;5.80;;;17.20;99.90;;;;;;496607;239;28830;-75
2023/09/11 07:20:53;;;;;;;9.23;6.23;;;17.30;99.90;;;;;;496595;239;29342;-75
2023/09/11 07:22:54;;;;;;;9.40;6.00;;;17.40;99.90;;;;;;496588;239;28944;-75
2023/09/11 07:24:55;;;;;;;7.07;6.37;;;17.50;99.90;;;;;;496560;239;28889;-75
2023/09/11 07:26:56;;;;;;;8.00;5.90;;;17.50;99.90;;;;;;496582;239;29281;-75
2023/09/11 07:29:10;;;;;;;8.37;6.20;;;17.70;99.90;;;;;;496610;239;29356;-75
2023/09/11 07:31:11;;;;;;;9.70;6.27;;;17.80;99.90;;;;;;496587;239;28798;-74
2023/09/11 07:33:12;;;;;;;8.40;6.30;;;17.80;99.90;;;;;;496551;239;28997;-75
2023/09/11 07:35:19;;;;;;;9.40;6.13;;;17.90;99.90;;;;;;496585;239;29481;-75
2023/09/11 07:37:21;;;;;;;7.80;6.70;;;18.00;99.90;;;;;;496569;239;28917;-75
2023/09/11 07:39:37;;;;;;;8.00;6.60;;;18.10;99.90;;;;;;496595;239;29286;-75
2023/09/11 07:41:38;;;;;;;11.90;6.33;;;18.20;99.90;;;;;;496557;239;28857;-75
2023/09/11 07:43:46;;;;;;;11.97;6.93;;;18.30;99.90;;;;;;496602;239;29399;-74
2023/09/11 07:45:45;;;;;;;7.20;5.93;;;18.40;99.90;;;;;;496558;239;28889;-75
2023/09/11 07:47:51;;;;;;;10.50;6.63;;;18.50;99.90;;;;;;496545;239;28810;-75
2023/09/11 07:49:53;;;;;;;7.13;6.07;;;18.60;99.90;;;;;;496593;239;28854;-74
2023/09/11 07:51:53;;;;;;;10.37;6.87;;;18.70;99.90;;;;;;496573;239;29333;-76
2023/09/11 07:53:55;;;;;;;9.40;6.23;;;18.80;99.90;;;;;;496629;239;29270;-75
2023/09/11 07:56:06;;;;;;;9.27;5.73;;;19.10;99.90;;;;;;496622;239;29407;-74
2023/09/11 07:58:09;;;;;;;14.40;6.80;;;19.20;99.90;;;;;;496586;239;28869;-75
2023/09/11 08:00:18;;;;;;;10.37;6.37;;;19.40;99.90;;;;;;496570;239;29326;-75
2023/09/11 08:02:19;;;;;;;6.90;5.83;;;19.50;99.90;;;;;;496609;239;28844;-73
2023/09/11 08:04:20;;;;;;;9.00;7.27;;;19.70;99.90;;;;;;496592;239;29227;-74
2023/09/11 08:06:23;;;;;;;11.57;7.17;;;19.80;99.90;;;;;;496596;239;30006;-74
2023/09/11 08:08:23;;;;;;;11.67;6.70;;;19.80;99.90;;;;;;496560;239;29328;-76
2023/09/11 08:10:30;;;;;;;6.53;5.63;;;19.90;99.90;;;;;;496581;239;28842;-75
2023/09/11 08:12:31;;;;;;;8.03;5.27;;;20.10;99.90;;;;;;496591;239;28824;-76
2023/09/11 08:14:43;;;;;;;9.87;6.73;;;20.20;99.90;;;;;;496540;239;28826;-74
2023/09/11 08:16:43;;;;;;;10.00;5.67;;;20.30;99.90;;;;;;496551;239;29009;-76
2023/09/11 08:18:44;;;;;;;10.23;6.30;;;20.50;99.90;;;;;;496563;239;29462;-77
2023/09/11 08:20:50;;;;;;;6.60;5.00;;;20.70;99.90;;;;;;496565;239;28803;-75
2023/09/11 08:22:50;;;;;;;7.03;5.60;;;20.80;99.90;;;;;;496516;239;28845;-75
2023/09/11 08:24:51;;;;;;;6.90;6.00;;;20.90;99.90;;;;;;496562;239;28865;-74
2023/09/11 08:26:52;;;;;;;10.37;5.73;;;21.00;99.90;;;;;;496576;239;29310;-74
2023/09/11 08:29:06;;;;;;;10.43;6.17;;;21.10;99.90;;;;;;496566;239;29271;-76
2023/09/11 08:31:07;;;;;;;11.73;5.90;;;21.20;99.90;;;;;;496551;239;28846;-76
2023/09/11 08:33:10;;;;;;;11.67;6.17;;;21.40;99.90;;;;;;496562;239;29678;-75
2023/09/11 08:35:11;;;;;;;10.60;6.23;;;21.60;99.90;;;;;;496590;239;28840;-74
2023/09/11 08:39:36;;;;;;;6.70;5.27;;;21.90;99.90;;;;;;496570;239;28924;-75
2023/09/11 08:41:37;;;;;;;9.13;5.53;;;21.90;99.90;;;;;;496536;239;28817;-76
2023/09/11 08:43:39;;;;;;;8.20;5.53;;;22.00;99.90;;;;;;496589;239;28875;-78
2023/09/11 08:45:43;;;;;;;8.10;5.30;;;22.20;99.90;;;;;;496568;239;28793;-75
2023/09/11 08:47:44;;;;;;;5.97;5.20;;;22.10;99.90;;;;;;496567;239;28806;-75
2023/09/11 08:49:46;;;;;;;8.63;5.20;;;22.00;99.90;;;;;;496572;239;28935;-75
2023/09/11 08:51:48;;;;;;;9.90;5.60;;;22.00;99.90;;;;;;496630;239;28836;-75
2023/09/11 08:54:01;;;;;;;7.50;5.30;;;22.10;99.90;;;;;;496617;239;29412;-75
2023/09/11 08:56:02;;;;;;;15.63;5.20;;;22.20;99.90;;;;;;496571;239;28794;-74
2023/09/11 08:58:10;;;;;;;5.60;5.00;;;22.50;99.90;;;;;;496562;239;29386;-75
2023/09/11 09:00:13;;;;;;;4.80;4.40;;;22.50;99.90;;;;;;496634;239;28794;-74
2023/09/11 09:02:19;;;;;;;5.63;4.60;;;22.50;99.90;;;;;;496593;239;29317;-74
2023/09/11 09:04:20;;;;;;;10.00;5.03;;;22.70;99.90;;;;;;496576;239;28870;-75
2023/09/11 09:06:22;;;;;;;7.73;4.67;;;23.10;99.90;;;;;;496634;239;28903;-75
2023/09/11 09:10:48;;;;;;;6.43;4.30;;;22.90;99.90;;;;;;496537;239;29317;-75
2023/09/11 09:12:50;;;;;;;7.43;4.70;;;23.00;99.90;;;;;;496591;239;29300;-72
2023/09/11 09:14:51;;;;;;;10.40;5.10;;;23.10;99.90;;;;;;496609;239;28848;-75
2023/09/11 09:16:53;;;;;;;7.57;5.10;;;23.00;99.90;;;;;;496583;239;28792;-76
2023/09/11 09:18:55;;;;;;;11.30;6.07;;;23.00;99.90;;;;;;496607;239;29274;-76
2023/09/11 09:20:58;;;;;;;9.70;5.60;;;23.00;99.90;;;;;;496541;239;29313;-74
2023/09/11 09:22:59;;;;;;;6.80;5.53;;;23.10;99.90;;;;;;496578;239;29300;-75
2023/09/11 09:25:01;;;;;;;9.20;4.90;;;23.10;99.90;;;;;;496579;239;29396;-74
2023/09/11 09:27:02;;;;;;;9.40;4.43;;;23.10;99.90;;;;;;496611;239;28880;-74
2023/09/11 09:29:12;;;;;;;9.50;5.53;;;23.00;99.90;;;;;;496607;239;29229;-74
2023/09/11 09:31:15;;;;;;;4.80;4.30;;;23.10;99.90;;;;;;496574;239;28859;-75
2023/09/11 09:33:15;;;;;;;9.03;5.40;;;23.10;99.90;;;;;;496572;239;29380;-74
2023/09/11 09:35:25;;;;;;;6.23;4.67;;;23.20;99.90;;;;;;496585;239;29239;-74
2023/09/11 09:37:26;;;;;;;7.27;4.97;;;23.20;99.90;;;;;;496608;239;28957;-74
2023/09/11 09:39:28;;;;;;;7.10;4.67;;;23.30;99.90;;;;;;496576;239;28821;-74
2023/09/11 09:41:29;;;;;;;8.57;5.10;;;23.40;99.90;;;;;;496560;239;29970;-74
2023/09/11 09:43:33;;;;;;;7.80;5.17;;;23.20;99.90;;;;;;496580;239;29274;-75
2023/09/11 09:45:35;;;;;;;8.30;4.63;;;23.30;99.90;;;;;;496602;239;28802;-74
2023/09/11 09:47:36;;;;;;;10.33;5.70;;;23.50;99.90;;;;;;496571;239;28935;-74
2023/09/11 09:49:37;;;;;;;6.03;4.90;;;23.80;99.90;;;;;;496574;239;29302;-75
2023/09/11 09:51:47;;;;;;;10.37;5.80;;;23.80;99.90;;;;;;496581;239;29387;-75
2023/09/11 09:53:49;;;;;;;7.17;4.90;;;23.80;99.90;;;;;;496601;239;28896;-75
2023/09/11 09:55:50;;;;;;;7.90;5.20;;;24.00;99.90;;;;;;496569;239;28841;-77
2023/09/11 09:57:51;;;;;;;8.90;5.50;;;24.30;99.90;;;;;;496563;239;30034;-76
2023/09/11 09:59:59;;;;;;;8.63;5.40;;;24.30;99.90;;;;;;496611;239;29247;-75
2023/09/11 10:02:00;;;;;;;5.60;4.70;;;24.40;99.90;;;;;;496584;239;28836;-74
2023/09/11 10:04:02;;;;;;;6.17;4.60;;;24.40;99.90;;;;;;496593;239;29395;-74
2023/09/11 10:06:03;;;;;;;6.73;4.97;;;24.30;99.90;;;;;;496529;239;29214;-75
2023/09/11 10:08:04;;;;;;;5.77;4.80;;;24.10;99.90;;;;;;496572;239;29334;-74
2023/09/11 10:10:07;;;;;;;10.00;5.43;;;24.30;99.90;;;;;;496568;239;30051;-74
2023/09/11 10:12:09;;;;;;;6.30;5.70;;;24.20;99.90;;;;;;496610;239;28901;-74
2023/09/11 10:14:10;;;;;;;6.47;4.80;;;24.10;99.90;;;;;;496592;239;28826;-74
2023/09/11 10:16:11;;;;;;;8.30;4.90;;;24.40;99.90;;;;;;496580;239;29719;-75
2023/09/11 10:18:13;;;;;;;8.53;4.83;;;24.60;99.90;;;;;;496544;239;29310;-73
2023/09/11 10:20:15;;;;;;;7.17;4.87;;;24.60;99.90;;;;;;496613;239;28841;-74
2023/09/11 10:22:17;;;;;;;4.60;4.20;;;24.70;99.90;;;;;;496590;239;29312;-74
2023/09/11 10:24:18;;;;;;;7.40;4.83;;;24.70;99.90;;;;;;496596;239;28934;-74
2023/09/11 10:26:19;;;;;;;9.53;4.90;;;24.60;99.90;;;;;;496554;239;28810;-75
2023/09/11 10:28:21;;;;;;;9.00;5.33;;;25.10;99.90;;;;;;496588;239;29371;-75
2023/09/11 10:30:22;;;;;;;6.90;5.47;;;25.20;99.90;;;;;;496622;239;29340;-75
2023/09/11 10:32:23;;;;;;;5.30;4.73;;;24.90;99.90;;;;;;496583;239;29270;-75
2023/09/11 10:36:29;;;;;;;7.60;5.30;;;24.60;99.90;;;;;;496572;239;28907;-77
2023/09/11 10:38:30;;;;;;;8.10;5.67;;;24.60;99.90;;;;;;496404;237;28876;-77
2023/09/11 10:40:32;;;;;;;9.27;5.30;;;24.60;99.90;;;;;;496561;239;29328;-76
2023/09/11 10:42:33;;;;;;;6.20;4.90;;;24.60;99.90;;;;;;496599;239;28927;-75
2023/09/11 10:44:35;;;;;;;9.17;5.07;;;24.50;99.90;;;;;;496580;239;28861;-74
2023/09/11 10:46:39;;;;;;;8.87;5.60;;;25.00;99.90;;;;;;496598;239;29463;-76
2023/09/11 10:48:46;;;;;;;5.73;4.87;;;25.30;99.90;;;;;;496592;239;28951;-75
2023/09/11 10:50:47;;;;;;;5.47;4.90;;;25.10;99.90;;;;;;496590;239;28883;-75
2023/09/11 10:52:48;;;;;;;7.37;5.20;;;25.10;99.90;;;;;;496596;239;28831;-75
2023/09/11 10:54:51;;;;;;;9.37;5.40;;;25.00;99.90;;;;;;496558;239;29240;-76
2023/09/11 10:56:52;;;;;;;10.13;5.10;;;24.90;99.90;;;;;;496555;239;28869;-76
2023/09/11 10:58:53;;;;;;;7.20;4.60;;;25.00;99.90;;;;;;496589;239;28889;-74